createdAt,value
2019-05-06T00:01:24.502Z,65.00
2019-05-06T00:03:54.150Z,65.10
2019-05-06T00:06:23.744Z,65.30
2019-05-06T00:08:54.556Z,65.50
2019-05-06T00:11:23.975Z,65.70
2019-05-06T00:13:54.382Z,65.90
2019-05-06T00:16:23.849Z,66.10
2019-05-06T00:18:54.008Z,67.10
2019-05-06T00:21:24.453Z,66.50
2019-05-06T00:23:54.555Z,66.60
2019-05-06T00:26:41.314Z,66.60
2019-05-06T00:29:14.022Z,66.80
2019-05-06T00:31:50.982Z,67.00
2019-05-06T00:34:19.960Z,67.10
2019-05-06T00:36:49.057Z,67.10
2019-05-06T00:39:27.465Z,67.30
2019-05-06T00:42:03.901Z,67.40
2019-05-06T00:44:34.642Z,67.40
2019-05-06T00:47:04.340Z,67.40
2019-05-06T00:49:34.464Z,67.50
2019-05-06T00:52:04.226Z,67.50
2019-05-06T00:54:34.110Z,67.60
2019-05-06T00:57:03.683Z,67.60
2019-05-06T00:59:34.536Z,67.60
2019-05-06T01:02:04.596Z,67.60
2019-05-06T01:04:33.988Z,67.60
2019-05-06T01:07:03.954Z,67.70
2019-05-06T01:09:34.334Z,67.70
2019-05-06T01:12:04.618Z,67.60
2019-05-06T01:14:38.581Z,67.70
2019-05-06T01:17:07.847Z,67.70
2019-05-06T01:19:36.883Z,67.70
2019-05-06T01:22:05.951Z,67.70
2019-05-06T01:24:34.986Z,67.70
2019-05-06T01:27:04.146Z,67.90
2019-05-06T01:29:34.783Z,67.90
2019-05-06T01:32:03.883Z,68.00
2019-05-06T01:34:34.019Z,68.10
2019-05-06T01:37:03.751Z,68.20
2019-05-06T01:39:50.367Z,68.20
2019-05-06T01:42:44.716Z,68.30
2019-05-06T01:45:14.213Z,68.40
2019-05-06T01:47:43.769Z,68.30
2019-05-06T01:50:14.025Z,68.40
2019-05-06T01:52:44.291Z,68.50
2019-05-06T01:55:14.205Z,68.60
2019-05-06T01:57:44.425Z,68.80
2019-05-06T02:00:14.096Z,68.90
2019-05-06T02:02:43.873Z,69.10
2019-05-06T02:05:13.841Z,69.10
2019-05-06T02:07:44.111Z,69.30
2019-05-06T02:10:14.222Z,69.40
2019-05-06T02:12:44.394Z,69.70
2019-05-06T02:15:14.611Z,69.80
2019-05-06T02:17:44.094Z,69.90
2019-05-06T02:20:13.811Z,70.80
2019-05-06T02:22:53.767Z,70.20
2019-05-06T02:25:26.903Z,70.30
2019-05-06T02:27:55.983Z,70.50
2019-05-06T02:30:45.468Z,70.50
2019-05-06T02:33:24.728Z,70.70
2019-05-06T02:36:25.752Z,70.80
2019-05-06T02:38:55.897Z,70.80
2019-05-06T02:41:25.199Z,70.90
2019-05-06T02:43:54.459Z,71.00
2019-05-06T02:46:23.928Z,71.10
2019-05-06T02:49:08.372Z,71.10
2019-05-06T02:51:37.335Z,71.30
2019-05-06T02:54:07.923Z,71.40
2019-05-06T02:56:36.936Z,71.60
2019-05-06T02:59:06.051Z,72.50
2019-05-06T03:01:35.211Z,71.70
2019-05-06T03:04:04.750Z,71.90
2019-05-06T03:06:34.061Z,72.00
2019-05-06T03:09:03.347Z,72.00
2019-05-06T03:11:33.219Z,72.20
2019-05-06T03:14:03.241Z,72.40
2019-05-06T03:16:33.276Z,72.50
2019-05-06T03:19:04.200Z,72.60
2019-05-06T03:21:45.626Z,72.60
2019-05-06T03:24:33.763Z,72.80
2019-05-06T03:27:04.520Z,72.80
2019-05-06T03:29:33.717Z,73.00
2019-05-06T03:32:06.946Z,73.00
2019-05-06T03:34:58.032Z,73.00
2019-05-06T03:37:07.762Z,73.00
2019-05-06T03:39:35.263Z,73.10
2019-05-06T03:42:04.937Z,73.20
2019-05-06T03:44:37.321Z,73.40
2019-05-06T03:47:28.482Z,73.40
2019-05-06T03:49:57.667Z,73.60
2019-05-06T03:52:29.257Z,73.70
2019-05-06T03:54:58.258Z,73.80
2019-05-06T03:57:28.579Z,73.80
2019-05-06T03:59:58.929Z,74.00
2019-05-06T04:02:28.450Z,73.90
2019-05-06T04:04:57.750Z,74.00
2019-05-06T04:07:27.183Z,74.20
2019-05-06T04:09:56.358Z,74.30
2019-05-06T04:12:25.451Z,74.50
2019-05-06T04:14:54.581Z,74.50
2019-05-06T04:17:34.483Z,74.60
2019-05-06T04:20:12.881Z,74.70
2019-05-06T04:22:53.176Z,74.70
2019-05-06T04:25:43.479Z,74.80
2019-05-06T04:28:15.269Z,74.90
2019-05-06T04:30:44.342Z,74.90
2019-05-06T04:33:17.304Z,75.00
2019-05-06T04:35:45.495Z,75.10
2019-05-06T04:38:14.638Z,75.10
2019-05-06T04:40:44.150Z,75.20
2019-05-06T04:43:13.702Z,75.20
2019-05-06T04:45:43.267Z,75.30
2019-05-06T04:48:14.220Z,75.40
2019-05-06T04:50:44.378Z,75.50
2019-05-06T04:53:13.965Z,75.50
2019-05-06T04:55:43.760Z,75.50
2019-05-06T04:58:13.719Z,75.50
2019-05-06T05:00:44.563Z,75.50
2019-05-06T05:03:14.258Z,75.60
2019-05-06T05:05:44.758Z,75.60
2019-05-06T05:08:14.217Z,75.60
2019-05-06T05:11:08.667Z,75.70
2019-05-06T05:13:52.957Z,75.80
2019-05-06T05:16:42.966Z,75.70
2019-05-06T05:19:12.523Z,75.80
2019-05-06T05:21:42.885Z,75.80
2019-05-06T05:24:12.109Z,76.00
2019-05-06T05:26:45.070Z,76.00
2019-05-06T05:29:12.578Z,76.20
2019-05-06T05:31:43.570Z,76.10
2019-05-06T05:34:12.707Z,76.10
2019-05-06T05:36:42.576Z,76.00
2019-05-06T05:39:12.494Z,75.90
2019-05-06T05:41:42.907Z,75.80
2019-05-06T05:44:16.499Z,75.80
2019-05-06T05:46:45.506Z,75.70
2019-05-06T05:49:28.512Z,75.60
2019-05-06T05:51:57.531Z,75.50
2019-05-06T05:54:26.592Z,75.40
2019-05-06T05:56:56.787Z,75.30
2019-05-06T05:59:25.832Z,75.30
2019-05-06T06:01:54.904Z,75.40
2019-05-06T06:04:23.964Z,76.40
2019-05-06T06:06:52.972Z,75.60
2019-05-06T06:09:24.604Z,76.40
2019-05-06T06:11:55.433Z,75.80
2019-05-06T06:14:49.415Z,75.90
2019-05-06T06:17:37.541Z,75.90
2019-05-06T06:20:24.416Z,76.00
2019-05-06T06:22:54.606Z,76.00
2019-05-06T06:25:23.870Z,75.90
2019-05-06T06:27:52.983Z,76.00
2019-05-06T06:30:33.027Z,75.90
2019-05-06T06:33:02.560Z,76.00
2019-05-06T06:35:38.730Z,75.80
2019-05-06T06:38:24.139Z,75.90
2019-05-06T06:40:55.622Z,76.00
2019-05-06T06:43:25.629Z,76.00
2019-05-06T06:45:54.721Z,76.10
2019-05-06T06:48:23.830Z,76.80
2019-05-06T06:50:52.971Z,76.10
2019-05-06T06:53:21.997Z,76.30
2019-05-06T06:55:52.705Z,76.20
2019-05-06T06:58:27.151Z,76.30
2019-05-06T07:01:14.151Z,76.40
2019-05-06T07:03:47.732Z,76.40
2019-05-06T07:06:37.558Z,76.50
2019-05-06T07:09:06.818Z,76.50
2019-05-06T07:11:35.917Z,76.50
2019-05-06T07:14:05.077Z,76.60
2019-05-06T07:16:44.909Z,76.60
2019-05-06T07:19:16.106Z,76.70
2019-05-06T07:21:52.126Z,76.70
2019-05-06T07:24:22.782Z,76.80
2019-05-06T07:26:55.926Z,76.80
2019-05-06T07:29:26.773Z,76.90
2019-05-06T07:31:55.787Z,76.90
2019-05-06T07:34:24.777Z,76.80
2019-05-06T07:36:55.040Z,76.80
2019-05-06T07:39:24.311Z,76.70
2019-05-06T07:41:56.695Z,76.70
2019-05-06T07:44:42.353Z,76.50
2019-05-06T07:47:38.039Z,76.40
2019-05-06T07:50:07.182Z,76.20
2019-05-06T07:52:36.257Z,76.10
2019-05-06T07:55:05.300Z,75.80
2019-05-06T07:57:34.321Z,75.60
2019-05-06T08:00:03.697Z,75.50
2019-05-06T08:02:32.794Z,75.30
2019-05-06T08:05:02.617Z,75.00
2019-05-06T08:07:42.272Z,74.90
2019-05-06T08:10:13.449Z,74.60
2019-05-06T08:12:42.829Z,74.30
2019-05-06T08:15:12.697Z,74.10
2019-05-06T08:17:42.561Z,73.80
2019-05-06T08:20:12.892Z,73.60
2019-05-06T08:23:02.099Z,73.30
2019-05-06T08:25:42.294Z,73.10
2019-05-06T08:28:10.326Z,72.90
2019-05-06T08:30:39.387Z,72.60
2019-05-06T08:33:08.542Z,72.40
2019-05-06T08:35:37.558Z,72.30
2019-05-06T08:38:06.666Z,72.10
2019-05-06T08:40:35.662Z,71.80
2019-05-06T08:43:04.780Z,71.60
2019-05-06T08:45:33.833Z,71.30
2019-05-06T08:48:03.095Z,71.10
2019-05-06T08:50:46.455Z,71.70
2019-05-06T08:53:34.586Z,70.70
2019-05-06T08:56:04.989Z,70.20
2019-05-06T08:58:46.559Z,69.70
2019-05-06T09:01:28.661Z,69.00
2019-05-06T09:04:08.697Z,68.00
2019-05-06T09:06:33.125Z,67.10
2019-05-06T09:08:59.356Z,66.50
2019-05-06T09:11:28.508Z,65.60
2019-05-06T09:13:57.668Z,64.90
2019-05-06T09:16:26.727Z,64.30
2019-05-06T09:18:55.851Z,63.60
2019-05-06T09:21:24.925Z,62.80
2019-05-06T09:23:54.054Z,62.30
2019-05-06T09:26:27.742Z,61.70
2019-05-06T09:29:06.366Z,61.30
2019-05-06T09:31:42.767Z,60.90
2019-05-06T09:34:32.803Z,60.40
2019-05-06T09:37:14.590Z,59.90
2019-05-06T09:39:44.454Z,59.50
2019-05-06T09:42:13.617Z,59.00
2019-05-06T09:44:43.156Z,58.60
2019-05-06T09:47:33.073Z,58.40
2019-05-06T09:50:02.893Z,58.20
2019-05-06T09:52:33.275Z,58.10
2019-05-06T09:55:12.860Z,57.80
2019-05-06T09:58:03.446Z,57.50
2019-05-06T10:00:34.010Z,57.20
2019-05-06T10:03:03.422Z,56.90
2019-05-06T10:05:33.857Z,56.60
2019-05-06T10:08:03.411Z,56.20
2019-05-06T10:10:32.860Z,56.00
2019-05-06T10:13:02.743Z,55.90
2019-05-06T10:15:32.549Z,55.80
2019-05-06T10:18:13.159Z,55.80
2019-05-06T10:20:43.289Z,55.70
2019-05-06T10:23:12.477Z,55.80
2019-05-06T10:25:43.711Z,55.70
2019-05-06T10:28:38.706Z,55.60
2019-05-06T10:31:12.569Z,55.60
2019-05-06T10:33:58.885Z,55.60
2019-05-06T10:36:28.940Z,55.70
2019-05-06T10:38:59.602Z,55.70
2019-05-06T10:41:32.867Z,55.70
2019-05-06T10:44:34.050Z,55.70
2019-05-06T10:47:03.217Z,55.90
2019-05-06T10:49:33.702Z,55.90
2019-05-06T10:52:09.943Z,55.90
2019-05-06T10:54:42.099Z,56.00
2019-05-06T10:57:17.340Z,56.00
2019-05-06T10:59:46.404Z,56.00
2019-05-06T11:02:46.691Z,56.00
2019-05-06T11:05:15.870Z,56.10
2019-05-06T11:07:44.911Z,56.10
2019-05-06T11:10:24.455Z,56.10
2019-05-06T11:12:44.759Z,56.00
2019-05-06T11:15:13.759Z,56.00
2019-05-06T11:17:43.616Z,55.90
2019-05-06T11:20:14.023Z,56.00
2019-05-06T11:22:43.697Z,55.90
2019-05-06T11:25:12.862Z,55.90
2019-05-06T11:27:44.938Z,56.00
2019-05-06T11:30:21.874Z,56.10
2019-05-06T11:33:13.766Z,56.20
2019-05-06T11:35:55.120Z,56.30
2019-05-06T11:38:24.323Z,56.20
2019-05-06T11:40:54.767Z,56.30
2019-05-06T11:43:23.718Z,56.10
2019-05-06T11:45:54.474Z,56.10
2019-05-06T11:48:23.589Z,56.00
2019-05-06T11:50:55.604Z,55.60
2019-05-06T11:53:24.647Z,55.30
2019-05-06T11:55:56.071Z,55.00
2019-05-06T11:58:42.812Z,54.80
2019-05-06T12:01:16.729Z,55.00
2019-05-06T12:03:45.835Z,54.20
2019-05-06T12:06:14.882Z,53.90
2019-05-06T12:08:43.933Z,53.80
2019-05-06T12:11:12.943Z,53.60
2019-05-06T12:13:42.530Z,53.70
2019-05-06T12:16:14.131Z,53.70
2019-05-06T12:18:42.621Z,53.80
2019-05-06T12:21:18.139Z,53.70
2019-05-06T12:23:44.890Z,53.70
2019-05-06T12:26:13.377Z,53.40
2019-05-06T12:28:43.435Z,53.00
2019-05-06T12:31:12.866Z,52.70
2019-05-06T12:33:46.338Z,52.50
2019-05-06T12:36:24.687Z,52.20
2019-05-06T12:39:16.233Z,52.10
2019-05-06T12:41:58.725Z,51.80
2019-05-06T12:44:27.826Z,51.70
2019-05-06T12:47:04.184Z,51.40
2019-05-06T12:49:33.222Z,51.10
2019-05-06T12:52:02.242Z,51.00
2019-05-06T12:54:33.525Z,50.70
2019-05-06T12:57:03.256Z,50.50
2019-05-06T12:59:32.582Z,50.20
2019-05-06T13:02:02.666Z,49.90
2019-05-06T13:04:49.402Z,49.50
2019-05-06T13:07:03.146Z,49.10
2019-05-06T13:09:33.154Z,48.70
2019-05-06T13:12:03.939Z,48.30
2019-05-06T13:14:33.310Z,48.00
2019-05-06T13:17:02.832Z,47.70
2019-05-06T13:19:32.307Z,47.40
2019-05-06T13:22:03.693Z,47.20
2019-05-06T13:24:32.790Z,46.90
2019-05-06T13:27:02.537Z,46.50
2019-05-06T13:29:35.531Z,46.20
2019-05-06T13:32:05.691Z,45.90
2019-05-06T13:34:34.666Z,45.80
2019-05-06T13:37:03.905Z,45.70
2019-05-06T13:39:33.202Z,45.70
2019-05-06T13:42:02.305Z,45.70
2019-05-06T13:44:32.011Z,45.60
2019-05-06T13:47:02.931Z,45.50
2019-05-06T13:49:47.747Z,46.00
2019-05-06T13:52:22.761Z,45.50
2019-05-06T13:54:52.991Z,45.50
2019-05-06T13:57:21.922Z,45.60
2019-05-06T13:59:53.194Z,45.90
2019-05-06T14:02:56.059Z,45.80
2019-05-06T14:05:25.208Z,45.90
2019-05-06T14:07:54.357Z,46.00
2019-05-06T14:10:23.522Z,46.20
2019-05-06T14:12:53.247Z,46.30
2019-05-06T14:15:23.191Z,46.40
2019-05-06T14:17:53.164Z,46.70
2019-05-06T14:20:26.470Z,46.90
2019-05-06T14:22:55.558Z,47.10
2019-05-06T14:25:43.403Z,47.30
2019-05-06T14:28:26.429Z,47.50
2019-05-06T14:31:02.956Z,47.60
2019-05-06T14:33:32.457Z,47.80
2019-05-06T14:36:03.199Z,47.90
2019-05-06T14:38:32.587Z,47.90
2019-05-06T14:41:13.113Z,48.00
2019-05-06T14:43:42.885Z,48.00
2019-05-06T14:46:12.037Z,48.10
2019-05-06T14:48:42.930Z,48.10
2019-05-06T14:51:13.018Z,48.20
2019-05-06T14:53:43.600Z,48.20
2019-05-06T14:56:32.303Z,48.20
2019-05-06T14:59:05.410Z,48.20
2019-05-06T15:01:35.304Z,48.10
2019-05-06T15:04:04.609Z,48.10
2019-05-06T15:06:34.957Z,48.00
2019-05-06T15:09:06.057Z,47.90
2019-05-06T15:11:35.124Z,47.80
2019-05-06T15:14:04.533Z,47.70
2019-05-06T15:16:33.891Z,47.60
2019-05-06T15:19:04.621Z,47.40
2019-05-06T15:21:38.338Z,47.30
2019-05-06T15:24:04.587Z,47.30
2019-05-06T15:26:33.903Z,47.40
2019-05-06T15:29:03.467Z,47.50
2019-05-06T15:32:02.591Z,47.60
2019-05-06T15:34:38.274Z,47.80
2019-05-06T15:37:19.582Z,48.40
2019-05-06T15:39:48.612Z,48.80
2019-05-06T15:42:36.881Z,49.30
2019-05-06T15:45:06.259Z,49.70
2019-05-06T15:47:35.302Z,50.00
2019-05-06T15:50:04.769Z,50.40
2019-05-06T15:52:33.844Z,50.70
2019-05-06T15:55:03.380Z,51.20
2019-05-06T15:57:32.855Z,51.50
2019-05-06T16:00:02.657Z,51.80
2019-05-06T16:02:33.489Z,51.90
2019-05-06T16:05:06.638Z,52.10
2019-05-06T16:07:37.094Z,52.20
2019-05-06T16:10:04.307Z,52.30
2019-05-06T16:12:33.316Z,52.40
2019-05-06T16:15:04.397Z,52.50
2019-05-06T16:17:33.654Z,52.70
2019-05-06T16:20:02.883Z,53.00
2019-05-06T16:22:33.833Z,53.10
2019-05-06T16:25:09.671Z,53.20
2019-05-06T16:27:38.725Z,53.50
2019-05-06T16:30:08.247Z,53.60
2019-05-06T16:32:37.892Z,53.60
2019-05-06T16:35:07.176Z,53.60
2019-05-06T16:37:36.408Z,53.60
2019-05-06T16:40:05.745Z,53.60
2019-05-06T16:42:34.793Z,53.60
2019-05-06T16:45:06.868Z,53.70
2019-05-06T16:47:37.974Z,53.60
2019-05-06T16:50:08.431Z,53.70
2019-05-06T16:52:45.458Z,53.80
2019-05-06T16:55:20.826Z,53.90
2019-05-06T16:58:02.392Z,54.00
2019-05-06T17:00:33.313Z,54.20
2019-05-06T17:03:32.030Z,54.30
2019-05-06T17:06:38.123Z,54.50
2019-05-06T17:09:18.320Z,54.70
2019-05-06T17:11:39.805Z,54.90
2019-05-06T17:14:08.868Z,55.00
2019-05-06T17:16:38.022Z,55.20
2019-05-06T17:19:07.034Z,55.30
2019-05-06T17:21:55.245Z,55.40
2019-05-06T17:24:24.328Z,55.60
2019-05-06T17:26:56.225Z,55.70
2019-05-06T17:29:44.678Z,55.90
2019-05-06T17:32:22.209Z,56.10
2019-05-06T17:34:53.081Z,56.30
2019-05-06T17:37:41.970Z,57.10
2019-05-06T17:40:14.032Z,56.90
2019-05-06T17:42:43.302Z,57.30
2019-05-06T17:45:31.960Z,57.80
2019-05-06T17:48:06.925Z,58.30
2019-05-06T17:51:15.223Z,58.80
2019-05-06T17:53:46.900Z,59.10
2019-05-06T17:56:15.869Z,59.40
2019-05-06T17:58:44.965Z,59.60
2019-05-06T18:01:14.998Z,59.90
2019-05-06T18:03:44.142Z,60.00
2019-05-06T18:06:14.234Z,60.40
2019-05-06T18:08:43.509Z,60.80
2019-05-06T18:11:12.993Z,61.10
2019-05-06T18:13:42.234Z,61.40
2019-05-06T18:16:13.223Z,61.80
2019-05-06T18:18:42.009Z,62.00
2019-05-06T18:21:12.325Z,62.30
2019-05-06T18:23:41.588Z,62.40
2019-05-06T18:26:10.710Z,62.60
2019-05-06T18:28:39.789Z,62.90
2019-05-06T18:31:08.863Z,63.20
2019-05-06T18:33:37.915Z,63.50
2019-05-06T18:36:07.058Z,63.70
2019-05-06T18:38:36.100Z,64.00
2019-05-06T18:41:05.172Z,64.10
2019-05-06T18:43:34.261Z,64.30
2019-05-06T18:46:03.354Z,64.30
2019-05-06T18:48:52.397Z,64.40
2019-05-06T18:51:22.359Z,64.50
2019-05-06T18:53:56.758Z,64.60
2019-05-06T18:56:25.790Z,64.80
2019-05-06T18:58:54.827Z,65.10
2019-05-06T19:01:23.872Z,65.20
2019-05-06T19:04:22.619Z,65.40
2019-05-06T19:07:08.887Z,65.50
2019-05-06T19:09:42.227Z,65.80
2019-05-06T19:12:12.809Z,66.10
2019-05-06T19:14:43.229Z,66.50
2019-05-06T19:17:13.170Z,66.70
2019-05-06T19:19:42.770Z,66.90
2019-05-06T19:22:13.965Z,67.00
2019-05-06T19:24:44.760Z,67.30
2019-05-06T19:27:13.531Z,67.50
2019-05-06T19:29:43.283Z,67.60
2019-05-06T19:32:12.554Z,67.40
2019-05-06T19:34:42.292Z,67.40
2019-05-06T19:37:11.543Z,67.30
2019-05-06T19:39:42.893Z,67.20
2019-05-06T19:42:12.898Z,67.30
2019-05-06T19:44:43.174Z,67.20
2019-05-06T19:47:13.285Z,67.30
2019-05-06T19:49:42.505Z,67.30
2019-05-06T19:52:11.625Z,67.40
2019-05-06T19:54:42.487Z,67.50
2019-05-06T19:57:12.471Z,67.70
2019-05-06T19:59:42.441Z,67.60
2019-05-06T20:02:12.884Z,67.60
2019-05-06T20:05:05.169Z,67.80
2019-05-06T20:07:48.642Z,67.90
2019-05-06T20:10:29.732Z,67.90
2019-05-06T20:13:02.731Z,68.00
2019-05-06T20:15:38.876Z,68.00
2019-05-06T20:18:08.056Z,68.10
2019-05-06T20:20:37.205Z,68.10
2019-05-06T20:23:07.622Z,68.20
2019-05-06T20:25:37.235Z,68.30
2019-05-06T20:28:06.513Z,68.20
2019-05-06T20:30:35.690Z,68.20
2019-05-06T20:33:04.770Z,68.20
2019-05-06T20:35:34.135Z,68.30
2019-05-06T20:38:03.152Z,68.20
2019-05-06T20:40:32.858Z,69.00
2019-05-06T20:43:14.251Z,68.30
2019-05-06T20:45:35.370Z,68.30
2019-05-06T20:48:03.625Z,68.30
2019-05-06T20:50:32.736Z,68.30
2019-05-06T20:53:01.805Z,68.50
2019-05-06T20:55:34.765Z,68.60
2019-05-06T20:58:02.732Z,68.70
2019-05-06T21:00:33.478Z,68.90
2019-05-06T21:03:02.628Z,69.10
2019-05-06T21:05:32.357Z,69.30
2019-05-06T21:08:02.248Z,69.40
2019-05-06T21:10:32.896Z,69.70
2019-05-06T21:13:02.395Z,69.70
2019-05-06T21:15:32.393Z,69.90
2019-05-06T21:18:04.332Z,70.20
2019-05-06T21:20:33.019Z,70.30
2019-05-06T21:23:03.246Z,70.40
2019-05-06T21:25:32.370Z,70.60
2019-05-06T21:28:02.791Z,70.70
2019-05-06T21:30:32.430Z,70.90
2019-05-06T21:33:01.562Z,71.10
2019-05-06T21:35:32.962Z,71.10
2019-05-06T21:38:02.542Z,71.30
2019-05-06T21:40:32.287Z,71.40
2019-05-06T21:43:02.042Z,71.50
2019-05-06T21:45:33.198Z,71.60
2019-05-06T21:48:02.771Z,71.60
2019-05-06T21:50:33.076Z,71.70
2019-05-06T21:53:02.864Z,71.70
2019-05-06T21:55:32.458Z,71.80
2019-05-06T21:58:02.349Z,71.90
2019-05-06T22:00:43.434Z,71.90
2019-05-06T22:03:13.367Z,72.00
2019-05-06T22:05:42.761Z,72.10
2019-05-06T22:08:12.829Z,72.20
2019-05-06T22:10:42.307Z,72.30
2019-05-06T22:13:12.575Z,72.40
2019-05-06T22:15:42.302Z,72.40
2019-05-06T22:18:12.500Z,72.50
2019-05-06T22:20:59.767Z,72.50
2019-05-06T22:23:49.029Z,72.80
2019-05-06T22:26:18.043Z,72.80
2019-05-06T22:28:47.085Z,72.90
2019-05-06T22:31:16.154Z,72.90
2019-05-06T22:33:45.182Z,72.90
2019-05-06T22:36:14.188Z,73.80
2019-05-06T22:38:44.280Z,73.00
2019-05-06T22:41:13.403Z,73.00
2019-05-06T22:43:42.509Z,73.10
2019-05-06T22:46:32.817Z,73.10
2019-05-06T22:49:02.427Z,73.10
2019-05-06T22:51:32.328Z,73.10
2019-05-06T22:54:02.699Z,73.10
2019-05-06T22:56:33.276Z,73.30
2019-05-06T22:59:03.280Z,73.40
2019-05-06T23:02:03.901Z,73.50
2019-05-06T23:04:34.078Z,73.70
2019-05-06T23:07:04.901Z,73.80
2019-05-06T23:09:33.989Z,73.90
2019-05-06T23:12:04.834Z,74.20
2019-05-06T23:14:36.892Z,74.40
2019-05-06T23:17:04.740Z,74.50
2019-05-06T23:19:33.817Z,74.70
2019-05-06T23:22:04.278Z,75.00
2019-05-06T23:24:33.383Z,75.10
2019-05-06T23:27:02.501Z,75.40
2019-05-06T23:29:31.425Z,75.60
2019-05-06T23:32:00.409Z,75.90
2019-05-06T23:34:29.392Z,76.00
2019-05-06T23:37:23.041Z,76.20
2019-05-06T23:40:38.674Z,76.30
2019-05-06T23:43:43.456Z,76.50
2019-05-06T23:46:48.237Z,76.70
2019-05-06T23:49:52.899Z,76.70
2019-05-06T23:53:16.789Z,76.90
2019-05-06T23:56:25.438Z,77.00
2019-05-06T23:58:54.429Z,77.10
